createdAt,value
2018-12-20T00:02:31.165Z,93.51
2018-12-20T00:05:03.854Z,93.87
2018-12-20T00:07:36.230Z,93.95
2018-12-20T00:10:08.844Z,93.95
2018-12-20T00:12:41.116Z,93.89
2018-12-20T00:15:15.427Z,93.51
2018-12-20T00:17:49.222Z,93.84
2018-12-20T00:20:21.573Z,92.87
2018-12-20T00:22:53.825Z,93.09
2018-12-20T00:25:26.193Z,93.71
2018-12-20T00:27:58.439Z,93.85
2018-12-20T00:30:30.912Z,94.00
2018-12-20T00:33:03.269Z,94.19
2018-12-20T00:35:35.807Z,92.92
2018-12-20T00:38:08.138Z,93.27
2018-12-20T00:40:40.492Z,93.17
2018-12-20T00:43:12.801Z,92.80
2018-12-20T00:45:45.114Z,93.07
2018-12-20T00:48:17.403Z,93.09
2018-12-20T00:50:49.708Z,93.08
2018-12-20T00:53:22.153Z,93.64
2018-12-20T00:55:54.512Z,93.46
2018-12-20T00:58:26.947Z,93.85
2018-12-20T01:00:59.326Z,93.59
2018-12-20T01:03:31.617Z,93.76
2018-12-20T01:06:03.835Z,93.01
2018-12-20T01:08:36.061Z,93.34
2018-12-20T01:11:08.411Z,93.20
2018-12-20T01:13:40.648Z,93.75
2018-12-20T01:16:12.891Z,93.15
2018-12-20T01:18:45.414Z,93.36
2018-12-20T01:21:17.869Z,93.02
2018-12-20T01:23:50.382Z,93.07
2018-12-20T01:26:22.758Z,93.15
2018-12-20T01:28:55.120Z,93.45
2018-12-20T01:31:27.449Z,93.59
2018-12-20T01:33:59.696Z,94.06
2018-12-20T01:36:32.119Z,93.40
2018-12-20T01:39:06.089Z,93.26
2018-12-20T01:41:38.308Z,93.81
2018-12-20T01:44:10.611Z,94.09
2018-12-20T01:46:42.896Z,94.35
2018-12-20T01:49:15.294Z,93.79
2018-12-20T01:51:47.713Z,93.61
2018-12-20T01:54:20.048Z,93.53
2018-12-20T01:56:52.293Z,93.78
2018-12-20T01:59:24.638Z,93.93
2018-12-20T02:01:57.022Z,93.13
2018-12-20T02:04:29.552Z,93.09
2018-12-20T02:07:01.933Z,93.76
2018-12-20T02:09:34.302Z,93.38
2018-12-20T02:12:06.720Z,93.22
2018-12-20T02:14:39.026Z,93.89
2018-12-20T02:17:11.517Z,93.24
2018-12-20T02:19:43.958Z,93.41
2018-12-20T02:22:16.279Z,94.01
2018-12-20T02:24:48.651Z,93.73
2018-12-20T02:27:21.140Z,93.29
2018-12-20T02:29:53.370Z,93.71
2018-12-20T02:32:25.829Z,93.68
2018-12-20T02:34:58.443Z,93.75
2018-12-20T02:37:31.083Z,93.40
2018-12-20T02:40:03.744Z,93.59
2018-12-20T02:42:36.236Z,92.99
2018-12-20T02:45:10.891Z,93.04
2018-12-20T02:47:43.029Z,92.94
2018-12-20T02:50:15.290Z,93.00
2018-12-20T02:52:47.613Z,93.11
2018-12-20T02:55:19.943Z,93.20
2018-12-20T02:57:52.213Z,93.38
2018-12-20T03:00:24.661Z,93.63
2018-12-20T03:02:56.967Z,92.95
2018-12-20T03:05:29.407Z,93.00
2018-12-20T03:08:01.747Z,93.09
2018-12-20T03:10:33.954Z,92.99
2018-12-20T03:13:06.465Z,92.98
2018-12-20T03:15:38.888Z,93.11
2018-12-20T03:18:11.237Z,93.42
2018-12-20T03:20:43.549Z,93.75
2018-12-20T03:23:15.889Z,93.79
2018-12-20T03:25:48.161Z,93.23
2018-12-20T03:28:20.436Z,93.10
2018-12-20T03:30:52.698Z,93.65
2018-12-20T03:33:25.027Z,93.45
2018-12-20T03:35:57.434Z,92.90
2018-12-20T03:38:29.804Z,92.96
2018-12-20T03:41:02.037Z,93.11
2018-12-20T03:43:34.553Z,93.17
2018-12-20T03:46:06.974Z,93.30
2018-12-20T03:48:39.560Z,94.14
2018-12-20T03:51:12.063Z,94.07
2018-12-20T03:53:44.512Z,93.43
2018-12-20T03:56:16.854Z,93.34
2018-12-20T03:58:49.216Z,92.98
2018-12-20T04:01:21.883Z,92.36
2018-12-20T04:03:54.289Z,92.37
2018-12-20T04:06:26.610Z,92.93
2018-12-20T04:08:58.958Z,92.16
2018-12-20T04:11:31.389Z,91.36
2018-12-20T04:14:04.072Z,92.16
2018-12-20T04:16:36.475Z,92.23
2018-12-20T04:19:08.721Z,92.81
2018-12-20T04:21:41.023Z,92.63
2018-12-20T04:24:13.603Z,93.03
2018-12-20T04:26:45.913Z,93.15
2018-12-20T04:29:18.191Z,93.34
2018-12-20T04:31:50.529Z,93.28
2018-12-20T04:34:23.063Z,93.74
2018-12-20T04:36:55.400Z,93.12
2018-12-20T04:39:27.642Z,93.35
2018-12-20T04:42:00.103Z,93.45
2018-12-20T04:44:32.443Z,92.88
2018-12-20T04:47:04.969Z,93.09
2018-12-20T04:49:37.486Z,92.81
2018-12-20T04:52:09.874Z,92.52
2018-12-20T04:54:42.171Z,92.72
2018-12-20T04:57:14.852Z,92.82
2018-12-20T04:59:47.251Z,92.73
2018-12-20T05:02:19.577Z,92.81
2018-12-20T05:04:51.827Z,92.90
2018-12-20T05:07:24.379Z,92.87
2018-12-20T05:09:57.018Z,92.35
2018-12-20T05:12:29.389Z,92.69
2018-12-20T05:15:02.052Z,92.86
2018-12-20T05:17:34.593Z,92.80
2018-12-20T05:20:07.127Z,93.21
2018-12-20T05:22:39.384Z,92.94
2018-12-20T05:25:11.614Z,93.63
2018-12-20T05:27:43.916Z,93.62
2018-12-20T05:30:16.282Z,93.59
2018-12-20T05:32:48.669Z,93.11
2018-12-20T05:35:21.385Z,93.46
2018-12-20T05:37:53.714Z,93.54
2018-12-20T05:40:26.202Z,92.93
2018-12-20T05:42:58.676Z,92.86
2018-12-20T05:45:31.152Z,93.55
2018-12-20T05:48:03.499Z,92.64
2018-12-20T05:50:35.934Z,92.58
2018-12-20T05:53:08.285Z,93.33
2018-12-20T05:55:41.152Z,92.97
2018-12-20T05:58:13.501Z,92.83
2018-12-20T06:00:45.765Z,93.08
2018-12-20T06:03:18.336Z,93.25
2018-12-20T06:05:50.844Z,93.07
2018-12-20T06:08:23.387Z,93.01
2018-12-20T06:10:55.877Z,92.90
2018-12-20T06:13:28.266Z,92.99
2018-12-20T06:16:00.698Z,93.66
2018-12-20T06:18:33.237Z,93.84
2018-12-20T06:21:05.712Z,92.96
2018-12-20T06:23:37.964Z,93.23
2018-12-20T06:26:10.211Z,92.46
2018-12-20T06:28:42.435Z,92.25
2018-12-20T06:31:16.243Z,92.21
2018-12-20T06:33:48.528Z,92.62
2018-12-20T06:36:20.816Z,92.76
2018-12-20T06:38:53.044Z,93.23
2018-12-20T06:41:25.376Z,93.35
2018-12-20T06:43:57.619Z,91.91
2018-12-20T06:46:29.877Z,92.13
2018-12-20T06:49:02.116Z,91.91
2018-12-20T06:51:34.402Z,92.54
2018-12-20T06:54:06.622Z,92.28
2018-12-20T06:56:38.908Z,92.45
2018-12-20T06:59:11.160Z,93.16
2018-12-20T07:01:43.547Z,92.83
2018-12-20T07:04:15.769Z,92.73
2018-12-20T07:06:48.021Z,92.63
2018-12-20T07:09:20.611Z,92.62
2018-12-20T07:11:52.895Z,91.98
2018-12-20T07:14:25.113Z,92.72
2018-12-20T07:16:57.396Z,92.62
2018-12-20T07:19:29.616Z,92.68
2018-12-20T07:22:01.879Z,92.45
2018-12-20T07:24:34.095Z,92.80
2018-12-20T07:27:06.357Z,92.98
2018-12-20T07:29:38.628Z,92.15
2018-12-20T07:32:10.830Z,92.72
2018-12-20T07:34:47.849Z,92.55
2018-12-20T07:37:17.367Z,92.68
2018-12-20T07:39:49.648Z,92.98
2018-12-20T07:42:21.948Z,93.48
2018-12-20T07:44:54.364Z,93.60
2018-12-20T07:47:26.609Z,92.78
2018-12-20T07:49:58.845Z,93.07
2018-12-20T07:52:31.070Z,93.08
2018-12-20T07:55:03.549Z,92.38
2018-12-20T07:57:35.787Z,92.36
2018-12-20T08:00:08.232Z,92.66
2018-12-20T08:02:40.428Z,92.67
2018-12-20T08:05:19.411Z,93.32
2018-12-20T08:07:51.647Z,93.51
2018-12-20T08:10:23.939Z,92.89
2018-12-20T08:12:56.192Z,92.98
2018-12-20T08:15:28.427Z,93.59
2018-12-20T08:18:00.643Z,93.62
2018-12-20T08:20:32.876Z,93.14
2018-12-20T08:23:05.120Z,93.24
2018-12-20T08:25:37.360Z,93.57
2018-12-20T08:28:09.575Z,93.73
2018-12-20T08:30:41.859Z,93.39
2018-12-20T08:33:14.060Z,94.14
2018-12-20T08:35:47.390Z,93.25
2018-12-20T08:38:19.664Z,94.08
2018-12-20T08:40:51.923Z,93.96
2018-12-20T08:43:24.232Z,92.86
2018-12-20T08:45:56.531Z,92.92
2018-12-20T08:48:28.787Z,92.15
2018-12-20T08:51:01.169Z,92.89
2018-12-20T08:53:33.460Z,92.84
2018-12-20T08:56:05.709Z,92.52
2018-12-20T08:58:37.945Z,93.00
2018-12-20T09:01:10.199Z,93.36
2018-12-20T09:03:42.480Z,92.96
2018-12-20T09:06:14.723Z,93.58
2018-12-20T09:08:47.086Z,93.53
2018-12-20T09:11:19.320Z,92.82
2018-12-20T09:13:51.600Z,93.74
2018-12-20T09:16:23.836Z,93.56
2018-12-20T09:18:56.104Z,93.17
2018-12-20T09:21:28.337Z,93.86
2018-12-20T09:24:00.583Z,93.65
2018-12-20T09:26:32.817Z,93.91
2018-12-20T09:29:05.086Z,93.86
2018-12-20T09:31:37.302Z,92.52
2018-12-20T09:34:09.556Z,93.23
2018-12-20T09:36:41.790Z,92.89
2018-12-20T09:39:14.038Z,92.44
2018-12-20T09:41:46.280Z,91.63
2018-12-20T09:44:18.556Z,92.78
2018-12-20T09:46:53.150Z,92.98
2018-12-20T09:49:25.422Z,92.87
2018-12-20T09:51:57.652Z,91.23
2018-12-20T09:54:29.934Z,90.32
2018-12-20T09:57:02.202Z,90.39
2018-12-20T09:59:34.502Z,90.06
2018-12-20T10:02:06.713Z,89.08
2018-12-20T10:04:39.107Z,88.00
2018-12-20T10:07:11.348Z,87.59
2018-12-20T10:09:43.635Z,86.37
2018-12-20T10:12:15.917Z,86.66
2018-12-20T10:14:48.179Z,86.67
2018-12-20T10:17:20.439Z,83.24
2018-12-20T10:19:52.704Z,82.96
2018-12-20T10:22:24.961Z,83.39
2018-12-20T10:24:57.259Z,82.53
2018-12-20T10:27:31.545Z,86.24
2018-12-20T10:30:04.186Z,83.03
2018-12-20T10:32:36.417Z,85.25
2018-12-20T10:35:08.695Z,83.67
2018-12-20T10:37:40.917Z,81.30
2018-12-20T10:40:13.187Z,82.04
2018-12-20T10:42:45.444Z,82.93
2018-12-20T10:45:17.737Z,79.98
2018-12-20T10:47:49.984Z,83.27
2018-12-20T10:50:22.326Z,82.31
2018-12-20T10:52:54.620Z,83.60
2018-12-20T10:55:26.888Z,79.66
2018-12-20T10:57:59.168Z,83.93
2018-12-20T11:00:36.024Z,82.71
2018-12-20T11:03:13.959Z,85.71
2018-12-20T11:05:51.799Z,81.22
2018-12-20T11:08:24.131Z,81.78
2018-12-20T11:11:05.254Z,83.00
2018-12-20T11:13:37.645Z,77.38
2018-12-20T11:16:09.928Z,80.92
2018-12-20T11:18:42.213Z,81.21
2018-12-20T11:21:14.450Z,81.68
2018-12-20T11:23:46.727Z,80.25
2018-12-20T11:26:18.940Z,80.83
2018-12-20T11:28:51.216Z,80.54
2018-12-20T11:31:23.448Z,79.62
2018-12-20T11:33:55.743Z,78.78
2018-12-20T11:36:27.976Z,76.91
2018-12-20T11:39:08.207Z,79.10
2018-12-20T11:41:34.621Z,77.77
2018-12-20T11:44:06.872Z,79.34
2018-12-20T11:46:39.135Z,80.80
2018-12-20T11:49:11.477Z,81.00
2018-12-20T11:51:43.849Z,81.08
2018-12-20T11:54:16.224Z,82.21
2018-12-20T11:56:48.490Z,83.27
2018-12-20T11:59:20.790Z,83.72
2018-12-20T12:01:53.091Z,83.83
2018-12-20T12:04:25.414Z,76.36
2018-12-20T12:06:57.653Z,79.03
2018-12-20T12:09:29.898Z,79.34
2018-12-20T12:12:02.236Z,79.09
2018-12-20T12:14:34.476Z,78.73
2018-12-20T12:17:06.753Z,81.14
2018-12-20T12:19:39.032Z,80.96
2018-12-20T12:22:11.301Z,82.39
2018-12-20T12:24:43.563Z,83.45
2018-12-20T12:27:15.879Z,83.25
2018-12-20T12:29:48.184Z,83.90
2018-12-20T12:32:20.456Z,83.80
2018-12-20T12:34:52.732Z,83.64
2018-12-20T12:37:25.015Z,84.38
2018-12-20T12:39:57.344Z,85.46
2018-12-20T12:42:29.565Z,85.43
2018-12-20T12:45:01.862Z,84.13
2018-12-20T12:47:39.803Z,83.76
2018-12-20T12:50:12.215Z,84.61
2018-12-20T12:52:44.480Z,84.48
2018-12-20T12:55:16.754Z,85.54
2018-12-20T12:57:49.016Z,85.57
2018-12-20T13:00:22.218Z,85.84
2018-12-20T13:02:54.576Z,87.03
2018-12-20T13:05:26.815Z,86.37
2018-12-20T13:07:59.133Z,86.81
2018-12-20T13:10:31.401Z,86.70
2018-12-20T13:13:03.691Z,87.30
2018-12-20T13:15:35.973Z,87.11
2018-12-20T13:18:13.809Z,88.13
2018-12-20T13:20:42.725Z,87.56
2018-12-20T13:23:15.029Z,88.13
2018-12-20T13:25:47.259Z,88.10
2018-12-20T13:28:19.539Z,88.50
2018-12-20T13:30:51.805Z,87.41
2018-12-20T13:33:24.206Z,87.36
2018-12-20T13:35:56.472Z,84.49
2018-12-20T13:38:28.752Z,84.03
2018-12-20T13:41:01.000Z,80.55
2018-12-20T13:43:33.319Z,79.24
2018-12-20T13:46:05.691Z,77.14
2018-12-20T13:48:37.977Z,75.20
2018-12-20T13:51:10.257Z,73.76
2018-12-20T13:53:42.540Z,74.38
2018-12-20T13:56:14.965Z,72.60
2018-12-20T13:58:47.256Z,72.74
2018-12-20T14:01:19.520Z,72.84
2018-12-20T14:03:51.800Z,71.50
2018-12-20T14:06:24.091Z,71.38
2018-12-20T14:08:56.385Z,73.85
2018-12-20T14:11:28.677Z,71.46
2018-12-20T14:14:00.973Z,71.10
2018-12-20T14:16:33.232Z,72.24
2018-12-20T14:19:05.633Z,71.71
2018-12-20T14:21:37.885Z,73.70
2018-12-20T14:24:10.148Z,74.89
2018-12-20T14:26:42.441Z,75.97
2018-12-20T14:29:14.713Z,75.79
2018-12-20T14:31:46.932Z,73.29
2018-12-20T14:34:19.239Z,74.36
2018-12-20T14:36:51.500Z,73.28
2018-12-20T14:39:23.767Z,74.19
2018-12-20T14:41:56.012Z,73.30
2018-12-20T14:44:28.308Z,73.40
2018-12-20T14:47:00.652Z,73.39
2018-12-20T14:49:32.959Z,72.25
2018-12-20T14:52:05.263Z,72.12
2018-12-20T14:54:37.552Z,72.71
2018-12-20T14:57:09.836Z,71.97
2018-12-20T14:59:42.097Z,71.56
2018-12-20T15:02:14.424Z,71.44
2018-12-20T15:04:46.726Z,71.16
2018-12-20T15:07:18.999Z,71.62
2018-12-20T15:09:51.303Z,71.91
2018-12-20T15:12:23.609Z,71.17
2018-12-20T15:15:01.809Z,71.23
2018-12-20T15:17:34.077Z,71.97
2018-12-20T15:20:07.960Z,72.01
2018-12-20T15:22:40.252Z,72.02
2018-12-20T15:25:12.576Z,73.63
2018-12-20T15:27:44.987Z,71.65
2018-12-20T15:30:17.287Z,72.21
2018-12-20T15:32:50.224Z,73.30
2018-12-20T15:35:22.539Z,73.85
2018-12-20T15:37:54.869Z,71.83
2018-12-20T15:40:27.176Z,71.77
2018-12-20T15:42:59.453Z,71.72
2018-12-20T15:45:31.843Z,71.53
2018-12-20T15:48:04.212Z,72.13
2018-12-20T15:50:36.527Z,71.67
2018-12-20T15:53:08.864Z,71.49
2018-12-20T15:55:41.099Z,71.05
2018-12-20T15:58:13.448Z,71.07
2018-12-20T16:00:45.724Z,70.83
2018-12-20T16:03:18.103Z,70.67
2018-12-20T16:05:50.394Z,70.53
2018-12-20T16:08:22.725Z,71.33
2018-12-20T16:10:55.044Z,70.95
2018-12-20T16:13:27.377Z,71.43
2018-12-20T16:15:59.673Z,72.32
2018-12-20T16:18:32.013Z,73.96
2018-12-20T16:21:04.336Z,73.50
2018-12-20T16:23:36.600Z,74.54
2018-12-20T16:26:08.924Z,74.37
2018-12-20T16:28:41.180Z,72.90
2018-12-20T16:31:13.465Z,73.07
2018-12-20T16:33:45.716Z,72.94
2018-12-20T16:36:17.960Z,72.19
2018-12-20T16:38:50.233Z,71.80
2018-12-20T16:41:22.518Z,72.39
2018-12-20T16:43:54.830Z,72.05
2018-12-20T16:46:27.135Z,71.54
2018-12-20T16:48:59.548Z,71.95
2018-12-20T16:51:31.933Z,71.69
2018-12-20T16:54:04.385Z,71.44
2018-12-20T16:56:36.816Z,71.86
2018-12-20T16:59:09.126Z,71.07
2018-12-20T17:01:41.411Z,71.15
2018-12-20T17:04:13.659Z,69.76
2018-12-20T17:06:45.931Z,71.16
2018-12-20T17:09:18.208Z,70.70
2018-12-20T17:11:50.529Z,71.22
2018-12-20T17:14:22.896Z,71.79
2018-12-20T17:16:55.220Z,72.64
2018-12-20T17:19:27.489Z,71.64
2018-12-20T17:21:59.836Z,72.47
2018-12-20T17:24:32.085Z,71.92
2018-12-20T17:27:04.363Z,71.81
2018-12-20T17:29:36.698Z,72.71
2018-12-20T17:32:08.989Z,71.60
2018-12-20T17:34:41.258Z,72.33
2018-12-20T17:37:13.551Z,71.89
2018-12-20T17:39:45.833Z,71.38
2018-12-20T17:42:18.142Z,72.54
2018-12-20T17:44:50.440Z,71.57
2018-12-20T17:47:22.884Z,70.76
2018-12-20T17:49:55.241Z,71.47
2018-12-20T17:52:27.581Z,70.93
2018-12-20T17:54:59.844Z,72.24
2018-12-20T17:57:32.139Z,71.99
2018-12-20T18:00:09.061Z,71.69
2018-12-20T18:02:41.354Z,71.43
2018-12-20T18:05:13.648Z,71.48
2018-12-20T18:07:45.955Z,71.96
2018-12-20T18:10:18.259Z,71.13
2018-12-20T18:12:50.588Z,71.56
2018-12-20T18:15:22.901Z,71.16
2018-12-20T18:17:55.276Z,72.10
2018-12-20T18:20:27.573Z,71.93
2018-12-20T18:23:00.016Z,71.94
2018-12-20T18:25:32.382Z,71.98
2018-12-20T18:28:04.725Z,71.81
2018-12-20T18:30:37.053Z,72.44
2018-12-20T18:33:09.478Z,71.94
2018-12-20T18:35:41.857Z,72.21
2018-12-20T18:38:14.204Z,71.56
2018-12-20T18:40:46.469Z,71.89
2018-12-20T18:43:18.740Z,71.68
2018-12-20T18:45:51.149Z,72.13
2018-12-20T18:48:23.475Z,71.71
2018-12-20T18:50:55.794Z,70.19
2018-12-20T18:53:28.129Z,71.94
2018-12-20T18:56:00.448Z,70.67
2018-12-20T18:58:32.749Z,70.95
2018-12-20T19:01:05.145Z,70.73
2018-12-20T19:03:37.434Z,71.86
2018-12-20T19:06:09.747Z,71.06
2018-12-20T19:08:42.152Z,70.96
2018-12-20T19:11:14.537Z,71.69
2018-12-20T19:13:46.888Z,71.47
2018-12-20T19:16:19.275Z,71.36
2018-12-20T19:18:51.706Z,71.30
2018-12-20T19:21:24.063Z,70.71
2018-12-20T19:23:56.338Z,70.77
2018-12-20T19:26:28.713Z,70.75
2018-12-20T19:29:01.021Z,71.29
2018-12-20T19:31:33.364Z,70.08
2018-12-20T19:34:05.704Z,71.10
2018-12-20T19:36:38.037Z,71.22
2018-12-20T19:39:13.330Z,70.65
2018-12-20T19:41:45.692Z,71.40
2018-12-20T19:44:18.042Z,71.20
2018-12-20T19:46:50.392Z,71.95
2018-12-20T19:49:22.760Z,70.17
2018-12-20T19:51:55.139Z,71.32
2018-12-20T19:54:27.474Z,71.01
2018-12-20T19:56:59.788Z,71.68
2018-12-20T19:59:38.623Z,70.87
2018-12-20T20:02:06.426Z,70.32
2018-12-20T20:04:38.781Z,69.61
2018-12-20T20:07:11.141Z,69.42
2018-12-20T20:09:43.423Z,70.13
2018-12-20T20:12:15.815Z,69.47
2018-12-20T20:14:48.191Z,68.95
2018-12-20T20:17:20.869Z,68.60
2018-12-20T20:19:59.672Z,68.72
2018-12-20T20:22:27.622Z,68.73
2018-12-20T20:25:00.005Z,69.51
2018-12-20T20:27:32.316Z,69.82
2018-12-20T20:30:07.118Z,68.88
2018-12-20T20:32:39.528Z,68.93
2018-12-20T20:35:11.907Z,68.86
2018-12-20T20:37:44.298Z,68.64
2018-12-20T20:40:16.660Z,68.20
2018-12-20T20:42:49.037Z,68.06
2018-12-20T20:45:21.378Z,69.03
2018-12-20T20:47:53.738Z,69.24
2018-12-20T20:50:26.101Z,68.52
2018-12-20T20:52:58.991Z,68.57
2018-12-20T20:55:31.325Z,67.57
2018-12-20T20:58:03.597Z,68.49
2018-12-20T21:00:35.967Z,68.25
2018-12-20T21:03:08.246Z,67.04
2018-12-20T21:05:40.566Z,67.77
2018-12-20T21:08:12.906Z,68.36
2018-12-20T21:10:45.323Z,69.20
2018-12-20T21:13:17.619Z,68.97
2018-12-20T21:15:49.951Z,69.08
2018-12-20T21:18:23.227Z,69.80
2018-12-20T21:20:55.684Z,70.04
2018-12-20T21:23:27.955Z,69.79
2018-12-20T21:26:00.237Z,70.04
2018-12-20T21:28:32.689Z,69.44
2018-12-20T21:31:05.020Z,69.05
2018-12-20T21:33:37.297Z,68.70
2018-12-20T21:36:09.647Z,69.62
2018-12-20T21:38:41.891Z,68.56
2018-12-20T21:41:14.222Z,68.64
2018-12-20T21:43:46.543Z,69.23
2018-12-20T21:46:18.874Z,68.61
2018-12-20T21:48:51.169Z,68.48
2018-12-20T21:51:23.458Z,68.58
2018-12-20T21:53:55.725Z,68.37
2018-12-20T21:56:29.072Z,68.48
2018-12-20T21:59:01.323Z,68.14
2018-12-20T22:01:33.636Z,68.77
2018-12-20T22:04:05.948Z,69.10
2018-12-20T22:06:38.283Z,68.51
2018-12-20T22:09:10.551Z,69.25
2018-12-20T22:11:42.968Z,69.40
2018-12-20T22:14:15.367Z,69.57
2018-12-20T22:16:48.668Z,70.39
2018-12-20T22:19:21.032Z,70.83
2018-12-20T22:21:53.353Z,70.28
2018-12-20T22:24:26.560Z,71.44
2018-12-20T22:26:58.998Z,71.41
2018-12-20T22:29:31.297Z,70.86
2018-12-20T22:32:03.631Z,70.77
2018-12-20T22:34:35.944Z,70.02
2018-12-20T22:37:08.213Z,70.06
2018-12-20T22:39:40.513Z,70.51
2018-12-20T22:42:12.803Z,70.26
2018-12-20T22:44:45.144Z,69.71
2018-12-20T22:47:17.444Z,69.79
2018-12-20T22:49:49.738Z,69.74
2018-12-20T22:52:22.008Z,70.39
2018-12-20T22:54:54.310Z,71.08
2018-12-20T22:57:26.603Z,71.03
2018-12-20T22:59:58.861Z,70.67
2018-12-20T23:02:31.125Z,70.27
2018-12-20T23:05:03.450Z,70.75
2018-12-20T23:07:35.731Z,70.92
2018-12-20T23:10:08.121Z,72.09
2018-12-20T23:12:40.388Z,71.25
2018-12-20T23:15:12.726Z,71.27
2018-12-20T23:17:45.021Z,71.28
2018-12-20T23:20:17.329Z,70.10
2018-12-20T23:22:49.595Z,70.31
2018-12-20T23:25:21.957Z,71.32
2018-12-20T23:27:54.274Z,70.73
2018-12-20T23:30:26.525Z,71.17
2018-12-20T23:32:58.758Z,71.33
2018-12-20T23:35:31.060Z,72.44
2018-12-20T23:38:03.423Z,72.73
2018-12-20T23:40:35.709Z,73.14
2018-12-20T23:43:07.974Z,72.79
2018-12-20T23:45:40.291Z,72.32
2018-12-20T23:48:12.567Z,71.98
2018-12-20T23:50:44.812Z,72.84
2018-12-20T23:53:17.086Z,72.87
2018-12-20T23:55:49.316Z,73.13
2018-12-20T23:58:21.611Z,73.32
